createdAt,value
2023-02-16T00:01:44.387Z,2.00
2023-02-16T00:04:18.865Z,2.00
2023-02-16T00:06:51.338Z,2.00
2023-02-16T00:09:24.491Z,2.00
2023-02-16T00:12:17.759Z,2.00
2023-02-16T00:14:49.978Z,2.00
2023-02-16T00:17:21.733Z,2.00
2023-02-16T00:19:53.494Z,1.90
2023-02-16T00:22:25.272Z,1.90
2023-02-16T00:24:57.056Z,1.90
2023-02-16T00:27:31.545Z,1.90
2023-02-16T00:30:03.699Z,1.80
2023-02-16T00:32:35.594Z,1.90
2023-02-16T00:35:12.969Z,1.80
2023-02-16T00:37:44.780Z,1.80
2023-02-16T00:40:17.013Z,1.70
2023-02-16T00:42:51.422Z,1.70
2023-02-16T00:45:24.678Z,1.70
2023-02-16T00:47:56.999Z,1.70
2023-02-16T00:50:29.898Z,1.60
2023-02-16T00:53:02.874Z,1.60
2023-02-16T00:55:36.650Z,1.60
2023-02-16T00:58:15.954Z,1.60
2023-02-16T01:00:51.108Z,1.60
2023-02-16T01:03:25.878Z,1.50
2023-02-16T01:06:16.265Z,1.50
2023-02-16T01:09:06.821Z,1.40
2023-02-16T01:11:38.641Z,1.40
2023-02-16T01:14:13.471Z,1.40
2023-02-16T01:16:45.242Z,1.40
2023-02-16T01:19:17.060Z,1.40
2023-02-16T01:21:48.855Z,1.40
2023-02-16T01:24:20.677Z,1.30
2023-02-16T01:26:52.545Z,1.30
2023-02-16T01:29:27.141Z,1.30
2023-02-16T01:31:59.204Z,1.30
2023-02-16T01:34:31.117Z,1.30
2023-02-16T01:37:02.889Z,1.30
2023-02-16T01:39:34.714Z,1.30
2023-02-16T01:42:11.157Z,1.20
2023-02-16T01:44:48.279Z,1.20
2023-02-16T01:47:28.942Z,1.20
2023-02-16T01:52:37.928Z,1.20
2023-02-16T01:55:14.774Z,1.20
2023-02-16T01:57:47.518Z,1.20
2023-02-16T02:00:24.045Z,1.10
2023-02-16T02:03:19.989Z,1.10
2023-02-16T02:05:52.063Z,1.00
2023-02-16T02:08:26.539Z,1.00
2023-02-16T02:11:07.926Z,1.00
2023-02-16T02:13:46.116Z,1.00
2023-02-16T02:16:20.223Z,1.00
2023-02-16T02:18:55.028Z,1.00
2023-02-16T02:22:22.022Z,1.00
2023-02-16T02:25:17.549Z,1.00
2023-02-16T02:27:56.207Z,0.90
2023-02-16T02:30:43.195Z,0.90
2023-02-16T02:33:41.586Z,0.90
2023-02-16T02:36:22.494Z,0.90
2023-02-16T02:39:04.285Z,0.90
2023-02-16T02:42:01.715Z,0.90
2023-02-16T02:44:42.227Z,0.90
2023-02-16T02:47:14.349Z,0.90
2023-02-16T02:49:51.080Z,0.90
2023-02-16T02:52:23.420Z,0.90
2023-02-16T02:55:14.327Z,0.90
2023-02-16T02:58:06.622Z,0.90
2023-02-16T03:00:44.771Z,0.90
2023-02-16T03:03:22.306Z,0.90
2023-02-16T03:05:59.774Z,0.80
2023-02-16T03:08:34.830Z,0.80
2023-02-16T03:11:29.594Z,0.80
2023-02-16T03:14:05.421Z,0.90
2023-02-16T03:16:44.647Z,0.90
2023-02-16T03:19:37.215Z,0.90
2023-02-16T03:22:27.658Z,0.90
2023-02-16T03:25:18.126Z,0.90
2023-02-16T03:28:09.722Z,0.90
2023-02-16T03:30:43.559Z,0.90
2023-02-16T03:33:18.806Z,1.00
2023-02-16T03:35:51.106Z,0.90
2023-02-16T03:38:23.730Z,1.00
2023-02-16T03:40:56.262Z,1.00
2023-02-16T03:43:29.087Z,1.00
2023-02-16T03:46:01.236Z,1.00
2023-02-16T03:48:35.854Z,1.00
2023-02-16T03:51:07.814Z,1.10
2023-02-16T03:53:39.821Z,1.10
2023-02-16T03:56:11.621Z,1.10
2023-02-16T03:58:43.685Z,1.10
2023-02-16T04:01:15.518Z,1.10
2023-02-16T04:03:50.263Z,1.10
2023-02-16T04:06:22.383Z,1.10
2023-02-16T04:08:54.818Z,1.00
2023-02-16T04:11:45.442Z,1.00
2023-02-16T04:14:17.762Z,1.00
2023-02-16T04:16:49.782Z,1.10
2023-02-16T04:19:24.880Z,1.10
2023-02-16T04:21:56.847Z,1.10
2023-02-16T04:24:28.830Z,1.10
2023-02-16T04:27:00.826Z,1.10
2023-02-16T04:29:32.629Z,1.10
2023-02-16T04:32:05.581Z,1.10
2023-02-16T04:34:40.327Z,1.10
2023-02-16T04:37:12.703Z,1.10
2023-02-16T04:39:44.771Z,1.10
2023-02-16T04:42:16.551Z,1.10
2023-02-16T04:44:48.549Z,1.00
2023-02-16T04:47:20.493Z,1.00
2023-02-16T04:49:55.127Z,1.00
2023-02-16T04:52:27.109Z,1.00
2023-02-16T04:54:59.581Z,1.00
2023-02-16T04:57:31.566Z,0.90
2023-02-16T05:00:05.176Z,0.90
2023-02-16T05:02:37.188Z,0.90
2023-02-16T05:05:11.733Z,0.90
2023-02-16T05:07:43.790Z,0.90
2023-02-16T05:10:15.637Z,0.90
2023-02-16T05:13:06.339Z,0.90
2023-02-16T05:15:38.502Z,0.90
2023-02-16T05:18:10.583Z,0.90
2023-02-16T05:21:03.775Z,0.90
2023-02-16T05:23:35.941Z,0.90
2023-02-16T05:26:07.962Z,0.90
2023-02-16T05:28:39.745Z,0.90
2023-02-16T05:31:11.881Z,0.90
2023-02-16T05:33:43.996Z,0.90
2023-02-16T05:36:18.470Z,0.80
2023-02-16T05:38:50.684Z,0.80
2023-02-16T05:41:25.484Z,0.80
2023-02-16T05:43:59.173Z,0.70
2023-02-16T05:46:35.006Z,0.70
2023-02-16T05:49:08.305Z,0.80
2023-02-16T05:51:43.350Z,0.80
2023-02-16T05:54:17.642Z,0.80
2023-02-16T05:56:51.580Z,0.80
2023-02-16T05:59:23.619Z,0.80
2023-02-16T06:01:55.491Z,0.80
2023-02-16T06:04:28.704Z,0.80
2023-02-16T06:07:03.446Z,0.70
2023-02-16T06:09:35.663Z,0.70
2023-02-16T06:12:07.858Z,0.70
2023-02-16T06:14:39.887Z,0.70
2023-02-16T06:17:11.661Z,0.70
2023-02-16T06:19:43.719Z,0.80
2023-02-16T06:22:18.121Z,0.70
2023-02-16T06:24:50.599Z,0.70
2023-02-16T06:27:23.145Z,0.60
2023-02-16T06:29:56.713Z,0.60
2023-02-16T06:32:28.865Z,0.50
2023-02-16T06:35:00.986Z,0.50
2023-02-16T06:37:35.369Z,0.50
2023-02-16T06:40:10.153Z,0.50
2023-02-16T06:42:42.097Z,0.50
2023-02-16T06:45:13.978Z,0.60
2023-02-16T06:47:45.868Z,0.60
2023-02-16T06:50:18.182Z,0.60
2023-02-16T06:52:52.628Z,0.50
2023-02-16T06:55:24.472Z,0.50
2023-02-16T06:57:56.239Z,0.50
2023-02-16T07:00:28.217Z,0.50
2023-02-16T07:03:00.123Z,0.40
2023-02-16T07:05:34.660Z,0.40
2023-02-16T07:08:09.115Z,0.40
2023-02-16T07:10:49.803Z,0.40
2023-02-16T07:13:22.290Z,0.50
2023-02-16T07:15:54.106Z,0.50
2023-02-16T07:18:25.917Z,0.50
2023-02-16T07:20:57.743Z,0.50
2023-02-16T07:23:32.358Z,0.50
2023-02-16T07:26:04.370Z,0.40
2023-02-16T07:28:36.254Z,0.40
2023-02-16T07:31:08.725Z,0.50
2023-02-16T07:33:43.703Z,0.50
2023-02-16T07:36:15.502Z,0.50
2023-02-16T07:38:49.888Z,0.50
2023-02-16T07:41:22.428Z,0.50
2023-02-16T07:43:54.886Z,0.50
2023-02-16T07:46:26.706Z,0.60
2023-02-16T07:48:58.652Z,0.60
2023-02-16T07:51:30.814Z,0.60
2023-02-16T07:54:05.256Z,0.60
2023-02-16T07:56:37.128Z,0.60
2023-02-16T07:59:08.943Z,0.60
2023-02-16T08:01:41.725Z,0.70
2023-02-16T08:04:13.590Z,0.70
2023-02-16T08:06:47.143Z,0.70
2023-02-16T08:09:21.699Z,0.80
2023-02-16T08:11:53.502Z,0.80
2023-02-16T08:14:25.316Z,0.90
2023-02-16T08:16:57.202Z,0.90
2023-02-16T08:19:29.354Z,0.90
2023-02-16T08:22:02.570Z,1.00
2023-02-16T08:24:37.519Z,1.00
2023-02-16T08:27:09.585Z,1.10
2023-02-16T08:29:42.046Z,1.10
2023-02-16T08:32:14.694Z,1.20
2023-02-16T08:34:46.538Z,1.20
2023-02-16T08:37:18.685Z,1.20
2023-02-16T08:39:53.913Z,1.20
2023-02-16T08:42:25.685Z,1.30
2023-02-16T08:44:58.992Z,1.30
2023-02-16T08:47:30.968Z,1.40
2023-02-16T08:50:02.765Z,1.40
2023-02-16T08:52:34.584Z,1.50
2023-02-16T08:55:09.119Z,1.60
2023-02-16T08:57:40.950Z,1.60
2023-02-16T09:00:32.421Z,1.70
2023-02-16T09:03:04.513Z,1.80
2023-02-16T09:05:36.578Z,1.80
2023-02-16T09:08:08.400Z,1.90
2023-02-16T09:10:43.611Z,2.00
2023-02-16T09:13:16.287Z,2.10
2023-02-16T09:15:48.334Z,2.10
2023-02-16T09:18:20.138Z,2.20
2023-02-16T09:20:52.220Z,2.30
2023-02-16T09:23:23.992Z,2.30
2023-02-16T09:25:59.333Z,2.40
2023-02-16T09:28:31.354Z,2.50
2023-02-16T09:31:11.764Z,2.60
2023-02-16T09:33:43.822Z,2.70
2023-02-16T09:36:15.617Z,2.80
2023-02-16T09:38:50.277Z,2.80
2023-02-16T09:41:31.161Z,2.90
2023-02-16T09:44:13.285Z,3.00
2023-02-16T09:46:47.069Z,3.10
2023-02-16T09:49:25.995Z,3.10
2023-02-16T09:52:04.956Z,3.30
2023-02-16T09:54:44.678Z,3.40
2023-02-16T09:57:30.146Z,3.40
2023-02-16T10:00:07.998Z,3.50
2023-02-16T10:02:48.220Z,3.60
2023-02-16T10:05:24.105Z,3.70
2023-02-16T10:08:03.023Z,3.80
2023-02-16T10:10:40.254Z,3.90
2023-02-16T10:13:19.053Z,4.00
2023-02-16T10:15:54.100Z,4.10
2023-02-16T10:18:30.031Z,4.20
2023-02-16T10:21:08.084Z,4.30
2023-02-16T10:23:44.223Z,4.40
2023-02-16T10:26:22.789Z,4.50
2023-02-16T10:29:00.340Z,4.70
2023-02-16T10:31:40.405Z,4.80
2023-02-16T10:34:23.198Z,4.90
2023-02-16T10:37:14.340Z,5.00
2023-02-16T10:39:52.027Z,5.20
2023-02-16T10:42:34.096Z,5.30
2023-02-16T10:45:17.308Z,5.40
2023-02-16T10:47:49.419Z,5.50
2023-02-16T10:50:25.375Z,5.60
2023-02-16T10:53:03.202Z,5.70
2023-02-16T10:55:36.545Z,5.80
2023-02-16T10:58:20.737Z,6.00
2023-02-16T11:01:07.420Z,6.10
2023-02-16T11:03:46.668Z,6.20
2023-02-16T11:06:20.794Z,6.30
2023-02-16T11:08:56.556Z,6.40
2023-02-16T11:11:29.104Z,6.50
2023-02-16T11:14:01.501Z,6.70
2023-02-16T11:16:36.071Z,6.80
2023-02-16T11:19:17.545Z,6.90
2023-02-16T11:21:52.617Z,7.00
2023-02-16T11:24:27.029Z,7.20
2023-02-16T11:27:04.864Z,7.30
2023-02-16T11:29:37.054Z,7.40
2023-02-16T11:32:13.634Z,7.50
2023-02-16T11:34:47.288Z,7.70
2023-02-16T11:37:26.917Z,7.80
2023-02-16T11:40:02.637Z,8.00
2023-02-16T11:42:35.828Z,8.10
2023-02-16T11:45:21.164Z,8.30
2023-02-16T11:47:58.515Z,8.50
2023-02-16T11:50:33.603Z,8.80
2023-02-16T11:53:16.192Z,9.00
2023-02-16T11:55:51.142Z,9.40
2023-02-16T11:58:26.098Z,9.60
2023-02-16T12:01:09.624Z,9.90
2023-02-16T12:03:53.419Z,10.40
2023-02-16T12:06:31.542Z,10.80
2023-02-16T12:09:08.209Z,11.20
2023-02-16T12:11:49.316Z,11.50
2023-02-16T12:14:30.621Z,11.90
2023-02-16T12:17:16.517Z,12.20
2023-02-16T12:19:59.003Z,12.50
2023-02-16T12:22:41.523Z,12.90
2023-02-16T12:25:20.064Z,13.20
2023-02-16T12:27:57.295Z,13.40
2023-02-16T12:30:38.360Z,13.60
2023-02-16T12:33:31.030Z,13.90
2023-02-16T12:36:11.873Z,14.20
2023-02-16T12:38:53.072Z,14.50
2023-02-16T12:41:34.304Z,14.90
2023-02-16T12:44:10.931Z,15.00
2023-02-16T12:46:45.810Z,15.30
2023-02-16T12:49:21.261Z,15.70
2023-02-16T12:52:04.626Z,15.90
2023-02-16T12:54:38.738Z,16.30
2023-02-16T12:57:15.687Z,16.60
2023-02-16T12:59:55.515Z,17.00
2023-02-16T13:02:43.210Z,17.20
2023-02-16T13:05:21.298Z,17.50
2023-02-16T13:08:02.148Z,17.60
2023-02-16T13:10:41.400Z,17.60
2023-02-16T13:13:17.662Z,17.50
2023-02-16T13:15:54.788Z,17.40
2023-02-16T13:18:30.461Z,17.40
2023-02-16T13:21:09.207Z,17.30
2023-02-16T13:24:04.412Z,17.00
2023-02-16T13:26:44.896Z,16.60
2023-02-16T13:29:30.700Z,16.30
2023-02-16T13:32:17.449Z,16.10
2023-02-16T13:35:09.778Z,16.00
2023-02-16T13:37:58.877Z,16.00
2023-02-16T13:40:58.035Z,16.10
2023-02-16T13:43:33.233Z,16.00
2023-02-16T13:46:12.404Z,15.70
2023-02-16T13:48:48.416Z,15.50
2023-02-16T13:51:23.448Z,15.30
2023-02-16T13:53:57.928Z,15.20
2023-02-16T13:56:39.137Z,15.30
2023-02-16T13:59:56.087Z,15.50
2023-02-16T14:02:54.474Z,15.60
2023-02-16T14:05:38.788Z,15.60
2023-02-16T14:08:22.974Z,15.80
2023-02-16T14:11:04.276Z,16.00
2023-02-16T14:13:50.259Z,16.10
2023-02-16T14:16:33.286Z,16.10
2023-02-16T14:19:19.270Z,16.10
2023-02-16T14:21:52.162Z,16.00
2023-02-16T14:24:30.806Z,15.90
2023-02-16T14:27:04.968Z,15.80
2023-02-16T14:29:42.811Z,15.70
2023-02-16T14:32:24.299Z,15.70
2023-02-16T14:35:03.446Z,15.60
2023-02-16T14:37:41.361Z,15.50
2023-02-16T14:40:23.323Z,15.40
2023-02-16T14:43:02.800Z,15.40
2023-02-16T14:49:29.288Z,15.20
2023-02-16T14:52:15.023Z,15.20
2023-02-16T14:55:29.950Z,15.10
2023-02-16T14:58:13.532Z,15.00
2023-02-16T15:00:49.709Z,14.80
2023-02-16T15:03:25.987Z,14.70
2023-02-16T15:06:00.214Z,14.70
2023-02-16T15:08:36.959Z,14.60
2023-02-16T15:11:16.053Z,14.60
2023-02-16T15:13:53.385Z,14.50
2023-02-16T15:16:25.456Z,14.50
2023-02-16T15:19:08.452Z,14.40
2023-02-16T15:21:40.597Z,14.40
2023-02-16T15:24:23.440Z,14.40
2023-02-16T15:26:56.976Z,14.40
2023-02-16T15:29:29.995Z,14.30
2023-02-16T15:32:05.966Z,14.40
2023-02-16T15:34:41.273Z,14.30
2023-02-16T15:37:24.876Z,14.30
2023-02-16T15:40:25.134Z,14.20
2023-02-16T15:43:07.002Z,14.20
2023-02-16T15:45:39.213Z,14.20
2023-02-16T15:48:22.942Z,14.10
2023-02-16T15:51:11.431Z,14.10
2023-02-16T15:53:50.039Z,14.10
2023-02-16T15:56:43.245Z,14.00
2023-02-16T15:59:27.754Z,14.00
2023-02-16T16:02:02.506Z,14.00
2023-02-16T16:04:38.924Z,13.90
2023-02-16T16:07:17.472Z,13.90
2023-02-16T16:09:50.328Z,13.90
2023-02-16T16:12:23.816Z,13.90
2023-02-16T16:14:58.025Z,13.90
2023-02-16T16:17:33.270Z,13.90
2023-02-16T16:20:25.837Z,13.90
2023-02-16T16:23:04.874Z,13.90
2023-02-16T16:25:42.949Z,13.80
2023-02-16T16:28:34.270Z,13.80
2023-02-16T16:31:08.625Z,13.80
2023-02-16T16:33:54.858Z,13.70
2023-02-16T16:36:31.758Z,13.70
2023-02-16T16:39:29.102Z,13.60
2023-02-16T16:42:22.699Z,13.60
2023-02-16T16:45:00.641Z,13.50
2023-02-16T16:47:35.798Z,13.50
2023-02-16T16:50:31.439Z,13.50
2023-02-16T16:53:24.063Z,13.40
2023-02-16T16:56:00.086Z,13.40
2023-02-16T16:58:33.239Z,13.40
2023-02-16T17:01:05.539Z,13.40
2023-02-16T17:03:37.949Z,13.40
2023-02-16T17:06:10.604Z,13.40
2023-02-16T17:08:42.642Z,13.30
2023-02-16T17:11:24.148Z,13.30
2023-02-16T17:13:57.479Z,13.20
2023-02-16T17:16:35.539Z,13.20
2023-02-16T17:19:07.583Z,13.20
2023-02-16T17:21:39.678Z,13.10
2023-02-16T17:24:11.808Z,13.10
2023-02-16T17:26:47.659Z,13.10
2023-02-16T17:29:19.741Z,13.10
2023-02-16T17:31:51.799Z,13.00
2023-02-16T17:34:29.384Z,13.00
2023-02-16T17:37:05.519Z,12.90
2023-02-16T17:39:37.276Z,12.90
2023-02-16T17:42:12.959Z,12.90
2023-02-16T17:44:45.262Z,12.80
2023-02-16T17:47:17.478Z,12.80
2023-02-16T17:49:49.514Z,12.80
2023-02-16T17:52:21.723Z,12.70
2023-02-16T17:54:53.804Z,12.70
2023-02-16T17:57:29.356Z,12.70
2023-02-16T18:00:02.237Z,12.60
2023-02-16T18:02:36.636Z,12.60
2023-02-16T18:05:08.685Z,12.60
2023-02-16T18:07:40.818Z,12.50
2023-02-16T18:10:33.001Z,12.50
2023-02-16T18:13:33.137Z,12.50
2023-02-16T18:16:08.172Z,12.40
2023-02-16T18:18:40.086Z,12.40
2023-02-16T18:21:11.995Z,12.40
2023-02-16T18:23:43.789Z,12.40
2023-02-16T18:26:16.102Z,12.30
2023-02-16T18:28:47.912Z,12.30
2023-02-16T18:31:22.430Z,12.30
2023-02-16T18:33:54.283Z,12.30
2023-02-16T18:36:26.036Z,12.20
2023-02-16T18:38:57.844Z,12.20
2023-02-16T18:41:29.927Z,12.20
2023-02-16T18:44:02.026Z,12.20
2023-02-16T18:46:36.588Z,12.20
2023-02-16T18:49:08.400Z,12.10
2023-02-16T18:51:40.385Z,12.10
2023-02-16T18:54:12.399Z,12.10
2023-02-16T18:56:44.377Z,12.10
2023-02-16T18:59:16.156Z,12.00
2023-02-16T19:01:53.863Z,11.90
2023-02-16T19:04:26.092Z,11.90
2023-02-16T19:06:58.523Z,11.80
2023-02-16T19:09:30.550Z,11.70
2023-02-16T19:12:02.685Z,11.60
2023-02-16T19:14:34.858Z,11.60
2023-02-16T19:17:09.458Z,11.50
2023-02-16T19:19:41.468Z,11.50
2023-02-16T19:22:13.533Z,11.40
2023-02-16T19:24:45.520Z,11.40
2023-02-16T19:27:18.288Z,11.40
2023-02-16T19:29:50.381Z,11.40
2023-02-16T19:32:25.061Z,11.30
2023-02-16T19:34:56.864Z,11.30
2023-02-16T19:37:29.000Z,11.20
2023-02-16T19:40:00.978Z,11.20
2023-02-16T19:42:32.850Z,11.10
2023-02-16T19:45:05.896Z,11.10
2023-02-16T19:47:40.515Z,11.00
2023-02-16T19:50:12.560Z,11.00
2023-02-16T19:52:44.536Z,10.90
2023-02-16T19:55:16.664Z,10.90
2023-02-16T19:57:48.632Z,10.80
2023-02-16T20:00:20.613Z,10.70
2023-02-16T20:02:54.979Z,10.60
2023-02-16T20:05:27.729Z,10.60
2023-02-16T20:07:59.537Z,10.50
2023-02-16T20:10:33.395Z,10.40
2023-02-16T20:13:05.543Z,10.30
2023-02-16T20:15:37.766Z,10.30
2023-02-16T20:18:12.416Z,10.20
2023-02-16T20:20:44.391Z,10.20
2023-02-16T20:23:16.153Z,10.10
2023-02-16T20:25:48.172Z,10.10
2023-02-16T20:28:20.546Z,10.10
2023-02-16T20:30:52.724Z,10.10
2023-02-16T20:33:27.118Z,10.10
2023-02-16T20:35:58.909Z,10.10
2023-02-16T20:38:30.700Z,10.10
2023-02-16T20:41:02.995Z,10.30
2023-02-16T20:43:35.274Z,10.60
2023-02-16T20:46:07.799Z,10.90
2023-02-16T20:48:42.659Z,11.20
2023-02-16T20:51:15.444Z,11.50
2023-02-16T20:53:47.627Z,11.80
2023-02-16T20:56:23.095Z,12.00
2023-02-16T20:58:55.886Z,12.20
2023-02-16T21:01:29.095Z,12.30
2023-02-16T21:04:05.108Z,12.50
2023-02-16T21:06:37.702Z,12.60
2023-02-16T21:09:10.360Z,12.70
2023-02-16T21:11:43.129Z,12.80
2023-02-16T21:14:15.120Z,12.90
2023-02-16T21:16:47.211Z,12.90
2023-02-16T21:19:23.489Z,13.00
2023-02-16T21:21:56.351Z,13.10
2023-02-16T21:24:28.420Z,13.10
2023-02-16T21:27:00.327Z,13.30
2023-02-16T21:29:32.692Z,13.30
2023-02-16T21:32:04.907Z,13.40
2023-02-16T21:34:39.293Z,13.50
2023-02-16T21:37:11.160Z,13.60
2023-02-16T21:40:01.653Z,13.70
2023-02-16T21:42:33.832Z,13.80
2023-02-16T21:45:14.954Z,13.80
2023-02-16T21:48:05.635Z,13.90
2023-02-16T21:50:41.429Z,13.90
2023-02-16T21:53:13.300Z,14.00
2023-02-16T21:56:03.903Z,14.10
2023-02-16T21:58:35.982Z,14.10
2023-02-16T22:01:07.924Z,14.10
2023-02-16T22:03:40.069Z,14.10
2023-02-16T22:06:14.462Z,14.10
2023-02-16T22:08:46.358Z,14.00
2023-02-16T22:11:18.195Z,14.00
2023-02-16T22:13:53.171Z,13.90
2023-02-16T22:16:25.504Z,13.90
2023-02-16T22:18:57.452Z,13.80
2023-02-16T22:21:31.847Z,13.80
2023-02-16T22:24:04.316Z,13.70
2023-02-16T22:26:36.173Z,13.70
2023-02-16T22:29:08.440Z,13.70
2023-02-16T22:31:43.366Z,13.70
2023-02-16T22:34:16.275Z,13.70
2023-02-16T22:36:50.757Z,13.70
2023-02-16T22:39:22.666Z,13.70
2023-02-16T22:41:54.453Z,13.70
2023-02-16T22:44:26.222Z,13.80
2023-02-16T22:46:58.015Z,13.80
2023-02-16T22:49:29.963Z,13.80
2023-02-16T22:52:04.563Z,13.90
2023-02-16T22:54:36.631Z,13.90
2023-02-16T22:57:08.433Z,14.00
2023-02-16T22:59:40.220Z,14.00
2023-02-16T23:02:12.007Z,14.10
2023-02-16T23:04:43.806Z,14.10
2023-02-16T23:07:18.241Z,14.20
2023-02-16T23:09:50.026Z,14.30
2023-02-16T23:12:21.863Z,14.30
2023-02-16T23:14:53.951Z,14.40
2023-02-16T23:17:25.733Z,14.40
2023-02-16T23:19:57.549Z,14.50
2023-02-16T23:22:32.011Z,14.50
2023-02-16T23:25:22.812Z,14.40
2023-02-16T23:27:54.913Z,14.20
2023-02-16T23:30:26.839Z,14.00
2023-02-16T23:32:58.678Z,13.80
2023-02-16T23:35:30.461Z,13.60
2023-02-16T23:38:04.842Z,13.40
2023-02-16T23:40:36.614Z,13.20
2023-02-16T23:43:08.620Z,13.10
2023-02-16T23:45:40.395Z,12.90
2023-02-16T23:48:12.210Z,12.80
2023-02-16T23:50:44.195Z,12.60
2023-02-16T23:53:18.808Z,12.60
2023-02-16T23:55:56.672Z,12.40
2023-02-16T23:58:29.129Z,12.30
